Time;durP1;ratioP1;P1;durP2;ratioP2;P2;SDS_P1;SDS_P2;PMS_P1;PMS_P2;Temp;Humidity;BMP_temperature;BMP_pressure;BME280_temperature;BME280_humidity;BME280_pressure;Samples;Min_cycle;Max_cycle;Signal;HPM_P1;HPM_P2
2023/01/31 00:00:44;;;;;;;11.97;3.33;;;;;;;1.50;100.00;102320.47;5047450;28;20025;-66
2023/01/31 00:03:09;;;;;;;12.17;3.33;;;;;;;1.47;100.00;102325.31;5047893;28;20065;-66
2023/01/31 00:05:34;;;;;;;13.47;3.07;;;;;;;1.46;100.00;102336.28;5048191;28;20052;-65
2023/01/31 00:08:00;;;;;;;17.90;3.07;;;;;;;1.42;100.00;102325.75;5047951;28;20385;-65
2023/01/31 00:10:25;;;;;;;9.23;2.93;;;;;;;1.41;100.00;102336.75;5047629;28;20488;-65
2023/01/31 00:12:51;;;;;;;11.50;3.00;;;;;;;1.39;100.00;102329.69;5047268;28;20039;-65
2023/01/31 00:15:19;;;;;;;8.17;3.00;;;;;;;1.36;100.00;102337.97;5047476;28;20036;-65
2023/01/31 00:17:44;;;;;;;16.03;3.17;;;;;;;1.34;100.00;102344.59;5047507;28;20390;-66
2023/01/31 00:20:11;;;;;;;20.10;3.30;;;;;;;1.33;100.00;102350.47;5046712;28;20276;-65
2023/01/31 00:22:36;;;;;;;17.77;4.10;;;;;;;1.34;100.00;102352.25;5046036;28;20481;-65
2023/01/31 00:25:02;;;;;;;18.23;3.70;;;;;;;1.34;100.00;102344.59;5047484;28;20017;-63
2023/01/31 00:27:27;;;;;;;16.33;3.90;;;;;;;1.35;100.00;102354.03;5046821;28;20103;-64
2023/01/31 00:29:52;;;;;;;14.53;3.13;;;;;;;1.34;100.00;102351.34;5047184;28;20600;-64
2023/01/31 00:32:18;;;;;;;13.93;3.63;;;;;;;1.33;100.00;102352.13;5047106;28;20036;-64
2023/01/31 00:34:43;;;;;;;13.73;3.73;;;;;;;1.31;100.00;102344.31;5047451;28;20029;-64
2023/01/31 00:37:08;;;;;;;16.20;3.53;;;;;;;1.28;100.00;102342.34;5050792;28;20481;-64
2023/01/31 00:39:34;;;;;;;12.57;3.50;;;;;;;1.26;100.00;102342.97;5052592;28;20060;-64
2023/01/31 00:41:59;;;;;;;14.87;3.83;;;;;;;1.24;100.00;102335.16;5047004;28;20029;-64
2023/01/31 00:44:25;;;;;;;10.67;3.40;;;;;;;1.25;100.00;102333.50;5047271;28;20028;-64
2023/01/31 00:46:50;;;;;;;21.00;3.67;;;;;;;1.22;100.00;102325.56;5046897;28;20072;-64
2023/01/31 00:49:15;;;;;;;13.50;3.93;;;;;;;1.24;100.00;102336.81;5047151;28;20025;-64
2023/01/31 00:51:40;;;;;;;14.47;3.87;;;;;;;1.23;100.00;102335.91;5047108;28;20041;-64
2023/01/31 00:54:06;;;;;;;15.10;4.60;;;;;;;1.21;100.00;102324.66;5046881;28;20032;-64
2023/01/31 00:56:31;;;;;;;19.23;4.10;;;;;;;1.21;100.00;102334.88;5059870;28;20017;-64
2023/01/31 00:58:59;;;;;;;19.67;3.97;;;;;;;1.21;100.00;102336.53;5046930;28;20507;-64
2023/01/31 01:01:27;;;;;;;13.40;3.50;;;;;;;1.22;100.00;102335.78;5047134;28;20021;-64
2023/01/31 01:03:54;;;;;;;12.93;3.73;;;;;;;1.21;100.00;102328.88;5047210;28;20086;-65
2023/01/31 01:06:20;;;;;;;11.40;3.70;;;;;;;1.21;100.00;102328.88;5050766;28;20045;-65
2023/01/31 01:08:46;;;;;;;14.03;3.90;;;;;;;1.24;100.00;102334.28;5050733;28;20021;-65
2023/01/31 01:11:22;;;;;;;16.87;5.03;;;;;;;1.25;100.00;102323.28;5050066;28;20033;-65
2023/01/31 01:13:47;;;;;;;16.07;4.80;;;;;;;1.24;100.00;102319.81;5050248;28;20033;-65
2023/01/31 01:16:19;;;;;;;13.13;3.60;;;;;;;1.28;100.00;102310.78;5050772;28;20805;-65
2023/01/31 01:18:46;;;;;;;18.75;4.50;;;;;;;1.27;100.00;102309.00;5050771;28;20028;-65
2023/01/31 01:21:20;;;;;;;14.47;3.90;;;;;;;1.26;100.00;102307.22;5050753;28;20021;-65
2023/01/31 01:23:47;;;;;;;17.37;4.37;;;;;;;1.26;100.00;102304.66;5049592;28;20017;-65
2023/01/31 01:26:18;;;;;;;15.10;4.93;;;;;;;1.27;100.00;102297.16;5050472;28;20048;-65
2023/01/31 01:28:44;;;;;;;18.50;4.13;;;;;;;1.28;100.00;102287.81;5050922;28;20020;-65
2023/01/31 01:31:11;;;;;;;15.53;4.30;;;;;;;1.28;100.00;102291.25;5050118;28;20028;-65
2023/01/31 01:33:36;;;;;;;18.57;4.27;;;;;;;1.28;100.00;102288.72;5049981;28;20473;-65
2023/01/31 01:36:07;;;;;;;23.30;5.53;;;;;;;1.28;100.00;102290.34;5049581;28;20021;-65
2023/01/31 01:38:34;;;;;;;12.73;4.28;;;;;;;1.29;100.00;102294.72;5050034;28;20340;-65
2023/01/31 01:41:00;;;;;;;16.63;4.47;;;;;;;1.28;100.00;102291.25;5050222;28;20107;-65
2023/01/31 01:43:46;;;;;;;19.93;4.40;;;;;;;1.29;100.00;102287.06;5050357;28;20473;-65
2023/01/31 01:46:18;;;;;;;21.43;4.83;;;;;;;1.27;100.00;102284.38;5050222;28;20469;-65
2023/01/31 01:48:48;;;;;;;15.77;4.93;;;;;;;1.28;100.00;102291.25;5049922;28;20025;-65
2023/01/31 01:51:18;;;;;;;17.93;4.97;;;;;;;1.29;100.00;102276.84;5049286;28;20818;-65
2023/01/31 01:53:46;;;;;;;15.80;5.80;;;;;;;1.31;100.00;102277.91;5049714;28;20039;-64
2023/01/31 01:56:20;;;;;;;17.53;6.27;;;;;;;1.33;100.00;102278.94;5050069;28;20036;-65
2023/01/31 01:58:59;;;;;;;22.97;6.10;;;;;;;1.34;100.00;102277.25;5049475;28;20031;-65
2023/01/31 02:01:30;;;;;;;19.83;5.60;;;;;;;1.40;100.00;102271.06;5049342;28;20465;-65
2023/01/31 02:03:56;;;;;;;24.83;7.28;;;;;;;1.40;100.00;102273.63;5049634;28;20452;-65
2023/01/31 02:06:21;;;;;;;17.97;5.53;;;;;;;1.40;100.00;102276.16;5049591;28;20100;-65
2023/01/31 02:08:47;;;;;;;15.30;5.67;;;;;;;1.42;100.00;102284.00;5050284;28;20021;-65
2023/01/31 02:11:29;;;;;;;22.60;6.73;;;;;;;1.42;100.00;102284.88;5062030;28;20029;-65
2023/01/31 02:14:04;;;;;;;17.43;5.73;;;;;;;1.41;100.00;102298.41;5049644;28;20017;-65
2023/01/31 02:16:30;;;;;;;19.57;6.77;;;;;;;1.41;100.00;102293.31;5049175;28;20028;-65
2023/01/31 02:18:56;;;;;;;21.17;6.80;;;;;;;1.46;100.00;102290.28;5050226;28;20021;-65
2023/01/31 02:22:03;;;;;;;22.47;7.57;;;;;;;1.46;100.00;102297.97;5049258;28;20056;-65
2023/01/31 02:24:50;;;;;;;28.40;7.83;;;;;;;1.44;100.00;102293.59;5049453;28;20021;-65
2023/01/31 02:27:33;;;;;;;16.03;6.90;;;;;;;1.43;100.00;102298.56;5049358;28;20021;-64
2023/01/31 02:30:27;;;;;;;22.17;7.47;;;;;;;1.40;100.00;102304.28;5049733;28;20028;-65
2023/01/31 02:33:09;;;;;;;18.70;7.47;;;;;;;1.39;100.00;102302.50;5048405;28;20036;-65
2023/01/31 02:35:44;;;;;;;23.20;7.33;;;;;;;1.39;100.00;102306.69;5048837;28;20025;-65
2023/01/31 02:38:40;;;;;;;23.90;7.67;;;;;;;1.40;100.00;102291.50;5049264;28;20108;-65
2023/01/31 02:41:31;;;;;;;24.53;8.40;;;;;;;1.39;100.00;102294.81;5049125;28;20461;-65
2023/01/31 02:46:59;;;;;;;18.13;7.63;;;;;;;1.40;100.00;102288.94;5052207;28;20485;-65
2023/01/31 02:49:45;;;;;;;18.63;8.60;;;;;;;1.49;100.00;102291.47;5048606;28;20037;-65
2023/01/31 02:52:23;;;;;;;22.10;8.00;;;;;;;1.53;100.00;102297.78;5048552;28;20604;-65
2023/01/31 02:57:45;;;;;;;24.53;8.60;;;;;;;1.60;100.00;102300.09;5049028;28;20040;-65
2023/01/31 03:00:12;;;;;;;22.57;8.63;;;;;;;1.59;100.00;102283.00;5048522;28;20066;-65
2023/01/31 03:02:37;;;;;;;20.33;8.40;;;;;;;1.61;100.00;102293.34;5048504;28;20028;-65
2023/01/31 03:05:03;;;;;;;21.43;9.23;;;;;;;1.60;100.00;102305.22;5049069;28;20054;-65
2023/01/31 03:07:32;;;;;;;25.67;9.40;;;;;;;1.66;100.00;102298.13;5048005;28;20025;-65
2023/01/31 03:10:22;;;;;;;22.50;9.10;;;;;;;1.72;100.00;102284.13;5048821;28;20448;-65
2023/01/31 03:13:29;;;;;;;24.13;9.90;;;;;;;1.70;100.00;102280.50;5048338;28;20075;-65
2023/01/31 03:19:03;;;;;;;21.83;9.70;;;;;;;1.70;100.00;102290.75;5048131;28;20048;-65
2023/01/31 03:21:38;;;;;;;25.20;10.53;;;;;;;1.71;100.00;102272.09;5047796;28;20031;-65
2023/01/31 03:24:05;;;;;;;21.40;10.07;;;;;;;1.71;100.00;102267.00;5048192;28;20078;-65
2023/01/31 03:26:32;;;;;;;20.63;10.57;;;;;;;1.72;100.00;102274.78;5047734;28;20299;-65
2023/01/31 03:29:00;;;;;;;23.33;9.87;;;;;;;1.75;100.00;102263.94;5047662;28;20037;-65
2023/01/31 03:31:31;;;;;;;22.77;10.27;;;;;;;1.75;100.00;102267.41;5047263;28;20040;-65
2023/01/31 03:34:02;;;;;;;26.92;10.65;;;;;;;1.75;100.00;102259.72;5047865;28;20036;-65
2023/01/31 03:36:54;;;;;;;25.27;10.83;;;;;;;1.78;100.00;102265.13;5048053;28;20031;-65
2023/01/31 03:39:41;;;;;;;23.73;10.83;;;;;;;1.79;100.00;102266.03;5047348;28;20027;-65
2023/01/31 03:42:08;;;;;;;23.47;11.43;;;;;;;1.79;100.00;102260.91;5060968;28;20342;-65
2023/01/31 03:44:48;;;;;;;29.00;11.80;;;;;;;1.78;100.00;102252.34;5060221;28;20024;-65
2023/01/31 03:47:19;;;;;;;26.80;11.60;;;;;;;1.81;100.00;102254.28;5047345;28;20027;-65
2023/01/31 03:49:46;;;;;;;25.98;11.55;;;;;;;1.81;100.00;102249.16;5047975;28;20025;-65
2023/01/31 03:52:22;;;;;;;29.10;11.53;;;;;;;1.82;100.00;102244.97;5046907;28;20443;-65
2023/01/31 03:54:53;;;;;;;30.87;12.83;;;;;;;1.82;100.00;102240.72;5046431;28;20033;-65
2023/01/31 03:57:33;;;;;;;25.13;12.37;;;;;;;1.79;100.00;102241.38;5047564;28;20075;-65
2023/01/31 04:00:00;;;;;;;29.30;12.53;;;;;;;1.76;100.00;102233.38;5046960;28;20037;-65
2023/01/31 04:02:36;;;;;;;29.33;11.83;;;;;;;1.75;100.00;102231.59;5047057;28;20526;-65
2023/01/31 04:05:05;;;;;;;23.93;12.23;;;;;;;1.75;100.00;102234.16;5060090;28;20078;-65
2023/01/31 04:07:30;;;;;;;24.50;10.63;;;;;;;1.77;100.00;102236.84;5046577;28;20384;-65
2023/01/31 04:09:56;;;;;;;27.33;11.53;;;;;;;1.77;100.00;102241.97;5047019;28;20030;-64
2023/01/31 04:12:22;;;;;;;26.83;12.87;;;;;;;1.77;100.00;102241.97;5046997;28;20044;-65
2023/01/31 04:14:47;;;;;;;21.73;10.70;;;;;;;1.74;100.00;102241.69;5046742;28;20032;-65
2023/01/31 04:17:12;;;;;;;24.97;11.00;;;;;;;1.73;100.00;102247.56;5046958;28;20036;-65
2023/01/31 04:19:37;;;;;;;24.97;12.03;;;;;;;1.72;100.00;102238.09;5046653;28;20107;-65
2023/01/31 04:22:03;;;;;;;22.57;11.97;;;;;;;1.72;100.00;102233.00;5046738;28;20029;-64
2023/01/31 04:24:28;;;;;;;29.87;12.10;;;;;;;1.70;100.00;102232.84;5059561;28;20112;-65
2023/01/31 04:26:53;;;;;;;27.37;12.30;;;;;;;1.67;100.00;102236.00;5046707;28;20035;-65
2023/01/31 04:29:18;;;;;;;31.93;11.93;;;;;;;1.66;100.00;102234.22;5046093;28;20370;-65
2023/01/31 04:31:45;;;;;;;28.33;12.60;;;;;;;1.68;100.00;102231.81;5046419;28;20029;-65
2023/01/31 04:34:10;;;;;;;25.97;11.83;;;;;;;1.66;100.00;102233.31;5046139;28;20116;-65
2023/01/31 04:36:36;;;;;;;21.90;12.10;;;;;;;1.65;100.00;102222.22;5046708;28;20116;-65
2023/01/31 04:39:01;;;;;;;24.53;12.50;;;;;;;1.62;100.00;102211.69;5045224;28;20098;-64
2023/01/31 04:41:26;;;;;;;21.83;11.57;;;;;;;1.63;100.00;102222.84;5046647;28;20028;-65
2023/01/31 04:43:52;;;;;;;29.27;12.67;;;;;;;1.60;100.00;102228.56;5047066;28;20028;-64
2023/01/31 04:46:18;;;;;;;25.97;11.80;;;;;;;1.56;100.00;102234.16;5045888;28;20029;-65
2023/01/31 04:48:43;;;;;;;28.27;13.33;;;;;;;1.54;100.00;102230.56;5046205;28;20032;-65
2023/01/31 04:51:08;;;;;;;20.70;10.83;;;;;;;1.52;100.00;102222.75;5009579;28;1053898;-65
2023/01/31 04:53:34;;;;;;;25.73;11.57;;;;;;;1.50;100.00;102220.81;5046723;28;20032;-65
2023/01/31 04:55:59;;;;;;;20.93;11.60;;;;;;;1.47;100.00;102216.34;5045191;28;20132;-65
2023/01/31 04:58:24;;;;;;;25.33;12.57;;;;;;;1.46;100.00;102208.53;5046207;28;20029;-65
2023/01/31 05:00:52;;;;;;;27.17;13.43;;;;;;;1.43;100.00;102199.81;5046937;28;20894;-64
2023/01/31 05:03:17;;;;;;;28.40;12.67;;;;;;;1.42;100.00;102198.00;5047122;28;20057;-65
2023/01/31 05:05:43;;;;;;;21.87;12.63;;;;;;;1.40;100.00;102194.41;5059556;28;20059;-65
2023/01/31 05:08:08;;;;;;;25.80;11.30;;;;;;;1.38;100.00;102190.84;5046882;28;20025;-65
2023/01/31 05:10:34;;;;;;;26.40;12.37;;;;;;;1.39;100.00;102191.72;5059294;28;20044;-65
2023/01/31 05:13:00;;;;;;;28.50;12.83;;;;;;;1.41;100.00;102183.44;5046694;28;20493;-65
2023/01/31 05:15:25;;;;;;;30.87;12.17;;;;;;;1.43;100.00;102189.59;5046554;28;20032;-65
2023/01/31 05:17:52;;;;;;;27.27;12.50;;;;;;;1.43;100.00;102188.69;5046325;28;20033;-65
2023/01/31 05:20:17;;;;;;;30.33;12.23;;;;;;;1.46;100.00;102182.97;5049933;28;20059;-65
2023/01/31 05:22:47;;;;;;;24.70;13.70;;;;;;;1.47;100.00;102185.69;5050545;28;20028;-64
2023/01/31 05:25:12;;;;;;;26.10;13.00;;;;;;;1.51;100.00;102191.97;5046380;28;20063;-65
2023/01/31 05:27:37;;;;;;;25.70;12.20;;;;;;;1.50;100.00;102183.38;5046403;28;20473;-64
2023/01/31 05:30:04;;;;;;;25.43;12.80;;;;;;;1.55;100.00;102173.56;5050355;28;20075;-65
2023/01/31 05:32:29;;;;;;;23.93;12.53;;;;;;;1.56;100.00;102188.16;5053849;28;20039;-65
2023/01/31 05:34:55;;;;;;;25.60;12.27;;;;;;;1.57;100.00;102179.72;5047086;28;20103;-65
2023/01/31 05:37:20;;;;;;;26.63;12.10;;;;;;;1.56;100.00;102175.38;5058323;28;20032;-64
2023/01/31 05:39:45;;;;;;;21.60;11.73;;;;;;;1.56;100.00;102185.59;5047931;28;20583;-65
2023/01/31 05:42:10;;;;;;;24.23;12.23;;;;;;;1.59;100.00;102179.84;5054753;28;20075;-65
2023/01/31 05:44:36;;;;;;;26.67;12.40;;;;;;;1.58;100.00;102158.53;5053440;28;20060;-64
2023/01/31 05:47:01;;;;;;;26.03;12.43;;;;;;;1.59;100.00;102160.31;5046287;28;20442;-65
2023/01/31 05:49:30;;;;;;;25.43;12.53;;;;;;;1.58;100.00;102172.97;5048276;28;20064;-65
2023/01/31 05:51:56;;;;;;;24.63;11.53;;;;;;;1.59;100.00;102157.75;5048449;28;20045;-65
2023/01/31 05:54:21;;;;;;;25.73;12.43;;;;;;;1.61;100.00;102166.47;5056419;28;20047;-65
2023/01/31 05:56:46;;;;;;;23.63;11.40;;;;;;;1.61;100.00;102168.13;5060498;28;20048;-64
2023/01/31 05:59:11;;;;;;;30.30;12.50;;;;;;;1.62;100.00;102157.16;5068182;28;20050;-65
2023/01/31 06:01:37;;;;;;;29.97;10.93;;;;;;;1.63;100.00;102147.06;5056561;28;20036;-65
2023/01/31 06:04:02;;;;;;;23.80;10.80;;;;;;;1.64;100.00;102159.06;5056128;28;20077;-64
2023/01/31 06:06:27;;;;;;;23.33;10.80;;;;;;;1.64;100.00;102174.41;5051577;28;20024;-65
2023/01/31 06:08:53;;;;;;;26.13;10.90;;;;;;;1.65;100.00;102170.19;5049333;28;20048;-65
2023/01/31 06:11:18;;;;;;;21.80;10.33;;;;;;;1.65;100.00;102168.56;5053075;28;20376;-65
2023/01/31 06:13:43;;;;;;;23.90;11.67;;;;;;;1.69;100.00;102169.72;5051245;28;20060;-65
2023/01/31 06:16:09;;;;;;;22.73;10.17;;;;;;;1.69;100.00;102162.06;5055518;28;20047;-65
2023/01/31 06:18:34;;;;;;;25.10;10.40;;;;;;;1.71;100.00;102159.63;5053745;28;20528;-65
2023/01/31 06:21:00;;;;;;;28.13;10.17;;;;;;;1.72;100.00;102163.97;5052792;28;20021;-65
2023/01/31 06:23:26;;;;;;;21.63;9.43;;;;;;;1.74;100.00;102165.00;5053366;28;20029;-65
2023/01/31 06:25:54;;;;;;;22.70;8.77;;;;;;;1.78;100.00;102162.84;5054209;28;20358;-64
2023/01/31 06:28:20;;;;;;;19.73;8.80;;;;;;;1.79;100.00;102163.75;5056792;28;20039;-65
2023/01/31 06:30:45;;;;;;;20.10;10.10;;;;;;;1.82;100.00;102169.13;5053363;28;20035;-65
2023/01/31 06:33:14;;;;;;;23.13;9.67;;;;;;;1.86;100.00;102166.09;5057563;28;20481;-64
2023/01/31 06:35:39;;;;;;;18.47;7.73;;;;;;;1.88;100.00;102162.03;5050763;28;20225;-64
2023/01/31 06:38:06;;;;;;;20.90;9.70;;;;;;;1.88;100.00;102164.59;5054499;28;20199;-65
2023/01/31 06:40:31;;;;;;;17.50;8.23;;;;;;;1.90;100.00;102163.06;5055199;28;20044;-65
2023/01/31 06:42:57;;;;;;;20.63;8.97;;;;;;;1.92;100.00;102150.41;5056363;28;20025;-65
2023/01/31 06:45:23;;;;;;;16.97;8.50;;;;;;;1.91;100.00;102153.72;5051853;28;20029;-65
2023/01/31 06:47:48;;;;;;;18.73;8.67;;;;;;;1.90;100.00;102150.28;5051864;28;20029;-64
2023/01/31 06:50:14;;;;;;;17.63;7.73;;;;;;;1.92;100.00;102143.63;5053331;28;20131;-64
2023/01/31 06:52:40;;;;;;;19.63;9.10;;;;;;;2.01;100.00;102147.78;5051588;28;20581;-64
2023/01/31 06:55:06;;;;;;;21.83;8.57;;;;;;;2.02;100.00;102139.31;5052155;28;20267;-64
2023/01/31 06:57:31;;;;;;;21.63;9.43;;;;;;;2.02;100.00;102136.78;5046688;28;20396;-64
2023/01/31 06:59:56;;;;;;;22.23;8.80;;;;;;;2.01;100.00;102137.53;5051981;28;20048;-64
2023/01/31 07:02:22;;;;;;;21.67;9.20;;;;;;;2.01;100.00;102135.91;5045763;28;20035;-64
2023/01/31 07:04:47;;;;;;;19.03;7.87;;;;;;;2.04;100.00;102132.69;5051626;28;20065;-64
2023/01/31 07:07:12;;;;;;;20.60;8.27;;;;;;;2.07;100.00;102134.63;5045503;28;20025;-64
2023/01/31 07:09:38;;;;;;;25.33;9.37;;;;;;;2.08;100.00;102129.66;5051843;28;20063;-64
2023/01/31 07:12:03;;;;;;;19.07;9.07;;;;;;;2.07;100.00;102122.72;5044719;28;20497;-64
2023/01/31 07:14:28;;;;;;;18.10;7.97;;;;;;;2.09;100.00;102123.75;5047215;28;20060;-64
2023/01/31 07:16:54;;;;;;;15.87;7.67;;;;;;;2.14;100.00;102125.06;5045699;28;20488;-64
2023/01/31 07:19:19;;;;;;;20.30;7.10;;;;;;;2.14;100.00;102124.19;5047354;28;20055;-64
2023/01/31 07:21:47;;;;;;;13.73;8.67;;;;;;;2.16;100.00;102125.19;5045167;28;20021;-64
2023/01/31 07:24:13;;;;;;;18.23;7.73;;;;;;;2.21;100.00;102138.38;5049987;28;20079;-64
2023/01/31 07:26:38;;;;;;;19.53;8.57;;;;;;;2.22;100.00;102122.25;5046051;28;20021;-64
2023/01/31 07:29:04;;;;;;;18.47;7.67;;;;;;;2.24;100.00;102120.75;5049091;28;20033;-64
2023/01/31 07:31:29;;;;;;;19.30;8.83;;;;;;;2.27;100.00;102129.59;5048759;28;20685;-64
2023/01/31 07:33:55;;;;;;;19.00;7.43;;;;;;;2.32;100.00;102124.84;5049939;28;20470;-64
2023/01/31 07:36:25;;;;;;;17.20;7.63;;;;;;;2.35;100.00;102126.78;5049941;28;20124;-64
2023/01/31 07:38:52;;;;;;;18.50;7.63;;;;;;;2.40;100.00;102116.19;5050622;28;20134;-64
2023/01/31 07:41:17;;;;;;;18.23;7.60;;;;;;;2.42;100.00;102117.97;5049047;28;20032;-64
2023/01/31 07:43:43;;;;;;;22.10;7.67;;;;;;;2.43;100.00;102114.66;5051392;28;20033;-65
2023/01/31 07:46:09;;;;;;;14.30;6.70;;;;;;;2.44;100.00;102107.13;5051259;28;20029;-64
2023/01/31 07:48:35;;;;;;;19.93;7.17;;;;;;;2.47;100.00;102109.03;5048327;28;20211;-64
2023/01/31 07:51:01;;;;;;;15.83;8.07;;;;;;;2.50;100.00;102096.50;5048316;28;20053;-64
2023/01/31 07:53:29;;;;;;;13.90;6.07;;;;;;;2.53;100.00;102101.88;5054183;28;20514;-64
2023/01/31 07:55:54;;;;;;;18.87;6.70;;;;;;;2.55;100.00;102100.34;5048809;28;20033;-64
2023/01/31 07:58:20;;;;;;;18.23;6.70;;;;;;;2.57;100.00;102093.72;5049981;28;20040;-64
2023/01/31 08:03:33;;;;;;;15.10;6.30;;;;;;;2.63;100.00;102083.97;5051363;28;20064;-64
2023/01/31 08:05:59;;;;;;;16.53;6.93;;;;;;;2.67;100.00;102084.22;5049786;28;20037;-65
2023/01/31 08:08:25;;;;;;;16.47;6.60;;;;;;;2.71;100.00;102089.75;5058097;28;20028;-64
2023/01/31 08:10:50;;;;;;;21.47;7.40;;;;;;;2.74;100.00;102091.66;5051733;28;20029;-64
2023/01/31 08:13:15;;;;;;;12.07;6.13;;;;;;;2.80;100.00;102086.16;5046893;28;20938;-64
2023/01/31 08:15:40;;;;;;;16.37;6.80;;;;;;;2.83;100.00;102079.63;5051767;28;20812;-64
2023/01/31 08:18:06;;;;;;;11.90;5.27;;;;;;;2.84;100.00;102083.09;5046849;28;20032;-64
2023/01/31 08:20:31;;;;;;;17.23;5.80;;;;;;;2.85;100.00;102085.78;5053183;28;20033;-64
2023/01/31 08:22:58;;;;;;;16.10;6.10;;;;;;;2.88;100.00;102080.00;5046570;28;20033;-64
2023/01/31 08:25:25;;;;;;;18.03;6.47;;;;;;;2.91;100.00;102079.38;5052264;28;20043;-64
2023/01/31 08:27:50;;;;;;;12.60;6.00;;;;;;;2.94;100.00;102077.06;5047655;28;20492;-65
2023/01/31 08:30:16;;;;;;;13.93;5.90;;;;;;;2.97;100.00;102074.75;5053943;28;20025;-64
2023/01/31 08:32:41;;;;;;;14.13;5.93;;;;;;;3.02;100.00;102073.50;5048591;28;20548;-64
2023/01/31 08:35:07;;;;;;;18.60;6.03;;;;;;;3.05;100.00;102066.06;5046418;28;20390;-64
2023/01/31 08:37:33;;;;;;;14.53;5.67;;;;;;;3.09;100.00;102064.66;5049079;28;20033;-65
2023/01/31 08:39:58;;;;;;;12.23;5.90;;;;;;;3.10;100.00;102067.34;5048249;28;20108;-64
2023/01/31 08:42:23;;;;;;;18.03;6.23;;;;;;;3.10;100.00;102062.22;5048008;28;20156;-64
2023/01/31 08:44:49;;;;;;;13.53;6.00;;;;;;;3.12;100.00;102057.19;5049751;28;20025;-64
2023/01/31 08:47:14;;;;;;;13.67;5.87;;;;;;;3.18;100.00;102056.81;5049173;28;20024;-64
2023/01/31 08:49:40;;;;;;;12.93;5.27;;;;;;;3.27;100.00;102043.84;5047482;28;20433;-64
2023/01/31 08:52:05;;;;;;;12.63;5.97;;;;;;;3.27;100.00;102044.75;5049170;28;20033;-65
2023/01/31 08:54:30;;;;;;;13.30;5.37;;;;;;;3.31;100.00;102046.78;5046965;28;20400;-64
2023/01/31 08:56:55;;;;;;;14.40;5.50;;;;;;;3.33;100.00;102045.25;5053441;28;20464;-64
2023/01/31 08:59:21;;;;;;;13.30;5.17;;;;;;;3.39;100.00;102033.69;5046541;28;20040;-64
2023/01/31 09:01:46;;;;;;;8.70;4.67;;;;;;;3.41;100.00;102035.63;5053802;28;20481;-64
2023/01/31 09:04:12;;;;;;;9.57;5.17;;;;;;;3.44;100.00;102025.63;5046885;28;20036;-64
2023/01/31 09:06:37;;;;;;;14.50;5.70;;;;;;;3.52;100.00;102030.47;5055211;28;20044;-64
2023/01/31 09:09:02;;;;;;;14.33;5.67;;;;;;;3.55;100.00;102021.34;5046947;28;20025;-64
2023/01/31 09:11:29;;;;;;;15.87;5.03;;;;;;;3.57;100.00;102024.94;5049331;28;20381;-64
2023/01/31 09:13:54;;;;;;;13.17;5.40;;;;;;;3.61;100.00;102028.63;5047224;28;20392;-64
2023/01/31 09:16:20;;;;;;;19.70;5.53;;;;;;;3.64;100.00;102025.41;5050723;28;20042;-64
2023/01/31 09:18:46;;;;;;;14.97;5.20;;;;;;;3.65;100.00;102033.22;5047350;28;20013;-64
2023/01/31 09:21:19;;;;;;;16.03;5.17;;;;;;;3.68;100.00;102024.88;5049242;28;20389;-64
2023/01/31 09:23:46;;;;;;;18.23;6.20;;;;;;;3.72;100.00;102025.22;5048952;28;20029;-64
2023/01/31 09:26:12;;;;;;;12.30;5.00;;;;;;;3.72;100.00;102026.94;5048362;28;20076;-64
2023/01/31 09:28:41;;;;;;;16.30;6.00;;;;;;;3.74;100.00;102007.44;5052687;28;20090;-64
2023/01/31 09:31:09;;;;;;;11.00;4.30;;;;;;;3.83;100.00;101997.88;5057287;28;20487;-64
2023/01/31 09:33:35;;;;;;;18.63;6.27;;;;;;;3.93;100.00;101996.94;5052321;28;20040;-64
2023/01/31 09:36:09;;;;;;;10.93;4.60;;;;;;;4.04;100.00;102005.47;5052532;28;20039;-64
2023/01/31 09:38:35;;;;;;;10.33;4.80;;;;;;;4.16;100.00;102004.59;5054860;28;20156;-64
2023/01/31 09:41:03;;;;;;;14.48;6.60;;;;;;;4.23;100.00;102009.44;5050040;28;20074;-64
2023/01/31 09:43:33;;;;;;;12.25;4.50;;;;;;;4.30;100.00;102010.81;5054721;28;20078;-64
2023/01/31 09:46:03;;;;;;;12.10;4.30;;;;;;;4.37;100.00;102012.19;5049367;28;20036;-65
2023/01/31 09:48:34;;;;;;;12.90;4.90;;;;;;;4.46;100.00;102017.13;5057733;28;20530;-64
2023/01/31 09:51:00;;;;;;;12.93;4.40;;;;;;;4.48;100.00;102016.44;5061208;28;20052;-64
2023/01/31 09:53:31;;;;;;;14.25;4.65;;;;;;;4.56;100.00;102007.66;5051966;28;20037;-64
2023/01/31 09:56:13;;;;;;;9.75;4.53;;;;;;;4.64;100.00;102002.22;5049372;28;20029;-64
2023/01/31 09:59:13;;;;;;;13.85;4.93;;;;;;;4.73;100.00;102008.00;5049164;28;20025;-64
2023/01/31 10:01:51;;;;;;;12.73;5.00;;;;;;;4.82;100.00;101999.22;5053070;28;20449;-64
2023/01/31 10:04:43;;;;;;;11.30;4.68;;;;;;;4.90;100.00;102016.09;5056176;28;20192;-64
2023/01/31 10:07:18;;;;;;;11.77;4.78;;;;;;;4.90;100.00;102003.25;5053831;28;20143;-64
2023/01/31 10:09:52;;;;;;;12.63;5.85;;;;;;;4.87;100.00;101997.88;5049573;28;20055;-64
2023/01/31 10:12:27;;;;;;;11.30;5.10;;;;;;;4.83;100.00;101998.44;5055388;28;20055;-63
2023/01/31 10:14:57;;;;;;;10.82;5.05;;;;;;;4.76;100.00;102003.13;5049878;28;20091;-63
2023/01/31 10:17:32;;;;;;;17.55;6.78;;;;;;;4.74;100.00;101996.97;5053412;28;20040;-64
2023/01/31 10:20:07;;;;;;;13.60;5.57;;;;;;;4.75;100.00;101996.19;5051715;28;20036;-64
2023/01/31 10:22:36;;;;;;;16.13;6.00;;;;;;;4.74;100.00;101976.44;5050227;28;20032;-64
2023/01/31 10:25:19;;;;;;;18.88;7.80;;;;;;;4.81;100.00;101975.22;5051781;28;20078;-64
2023/01/31 10:27:55;;;;;;;17.35;7.50;;;;;;;4.78;100.00;101983.59;5053040;28;20017;-64
2023/01/31 10:30:26;;;;;;;16.30;7.43;;;;;;;4.78;100.00;101981.03;5051643;28;20560;-65
2023/01/31 10:33:04;;;;;;;19.73;8.43;;;;;;;4.75;100.00;102001.31;5049299;28;20027;-64
2023/01/31 10:35:36;;;;;;;14.98;8.45;;;;;;;4.71;100.00;102004.47;5052785;28;20033;-65
2023/01/31 10:38:11;;;;;;;16.23;8.70;;;;;;;4.69;100.00;102003.44;5048913;28;20028;-65
2023/01/31 10:40:39;;;;;;;17.70;8.07;;;;;;;4.65;100.00;102009.13;5055659;28;20032;-64
2023/01/31 10:43:21;;;;;;;12.35;7.70;;;;;;;4.64;100.00;102009.91;5051405;28;20031;-64
2023/01/31 10:45:47;;;;;;;16.20;9.18;;;;;;;4.63;100.00;101992.72;5049558;28;20389;-64
2023/01/31 10:48:18;;;;;;;16.23;10.05;;;;;;;4.66;100.00;101995.50;5051522;28;20029;-64
2023/01/31 10:51:17;;;;;;;19.83;11.18;;;;;;;4.69;100.00;101995.75;5048350;28;20082;-64
2023/01/31 10:54:01;;;;;;;17.92;11.32;;;;;;;4.71;100.00;101988.16;5054835;28;20029;-64
2023/01/31 10:56:34;;;;;;;21.30;11.85;;;;;;;4.76;100.00;101981.69;5048774;28;20075;-64
2023/01/31 10:59:04;;;;;;;21.83;11.70;;;;;;;4.79;100.00;101982.81;5057250;28;20024;-64
2023/01/31 11:01:29;;;;;;;20.63;12.07;;;;;;;4.83;100.00;101977.88;5057528;28;20024;-64
2023/01/31 11:03:56;;;;;;;19.88;12.73;;;;;;;4.83;100.00;101977.88;5054069;28;20024;-64
2023/01/31 11:06:22;;;;;;;16.77;12.30;;;;;;;4.88;100.00;101973.97;5056769;28;20074;-64
2023/01/31 11:08:55;;;;;;;21.45;13.00;;;;;;;4.89;100.00;101986.94;5049550;28;20649;-64
2023/01/31 11:11:23;;;;;;;21.42;13.80;;;;;;;4.91;100.00;101976.78;5050624;28;20040;-64
2023/01/31 11:14:00;;;;;;;20.60;12.45;;;;;;;4.95;100.00;101973.66;5050648;28;20412;-65
2023/01/31 11:16:30;;;;;;;20.33;12.85;;;;;;;5.00;100.00;101969.75;5050798;28;20029;-64
2023/01/31 11:18:57;;;;;;;20.33;12.65;;;;;;;5.01;100.00;101968.97;5052257;28;20021;-64
2023/01/31 11:21:26;;;;;;;20.98;13.43;;;;;;;5.04;100.00;101953.78;5051289;28;20021;-64
2023/01/31 11:23:59;;;;;;;21.38;12.85;;;;;;;5.08;100.00;101954.00;5047878;28;20481;-64
2023/01/31 11:26:34;;;;;;;18.85;12.18;;;;;;;5.14;100.00;101954.44;5052457;28;20481;-64
2023/01/31 11:29:01;;;;;;;15.13;12.40;;;;;;;5.16;100.00;101933.19;5048398;28;20159;-65
2023/01/31 11:31:40;;;;;;;16.98;11.68;;;;;;;5.19;100.00;101934.22;5054150;28;20453;-64
2023/01/31 11:34:32;;;;;;;17.40;11.82;;;;;;;5.21;100.00;101942.91;5048341;28;20063;-64